DW4611 Weather Reports


Display with metric or nautical units.
time (UTC)temp
F
wind
direction
speed
MPH
gust
MPH
rain 1hr
in
rain 24hr
in
rain mn
in
humidity
%
barometer
mb
20180224101115 39 330 2.0 5.0 0.01 0.48 0.34 97 1011.7
20180224095613 38 321 0.0 1.0 0.02 0.51 0.34 97 1011.8
20180224094110 38 321 1.0 4.0 0.01 0.50 0.33 97 1011.8
20180224092607 37 338 3.0 5.0 0.02 0.50 0.33 97 1011.9
20180224091108 37 324 2.0 5.0 0.02 0.50 0.33 97 1011.9
20180224085603 36 221 1.0 3.0 0.02 0.51 0.32 97 1012.0
20180224084100 36 120 0.0 0.0 0.02 0.50 0.31 97 1012.2
20180224082600 35 120 0.0 0.0 0.02 0.50 0.31 97 1012.2
20180224081100 35 120 0.0 0.0 0.02 0.50 0.31 97 1012.1
20180224075600 35 120 0.0 0.0 0.02 0.49 0.30 97 1012.0
20180224074057 35 120 0.0 2.0 0.02 0.49 0.30 97 1012.1
20180224072556 35 120 0.0 1.0 0.02 0.48 0.28 97 1011.9
20180224071053 35 120 0.0 0.0 0.02 0.47 0.28 97 1011.4
20180224065552 34 120 0.0 2.0 0.02 0.48 0.28 97 1011.4
20180224064051 35 141 2.0 6.0 0.02 0.47 0.28 97 1011.4
20180224062549 35 94 0.0 0.0 0.02 0.46 0.27 96 1010.9
20180224061046 35 94 0.0 4.0 0.03 0.46 0.27 97 1010.8
20180224055545 35 94 0.0 2.0 0.03 0.46 0.26 97 1010.7
20180224054046 35 94 0.0 4.0 0.03 0.45 0.25 97 1010.5
20180224052548 35 323 1.0 5.0 0.04 0.44 0.24 97 1010.3
20180224051041 35 309 2.0 4.0 0.05 0.43 0.24 97 1010.1
20180224045543 34 198 0.0 0.0 0.05 0.43 0.23 96 1010.3
20180224044040 34 131 0.0 4.0 0.04 0.42 0.21 96 1010.5
20180224042539 34 131 3.0 10.0 0.05 0.41 0.20 96 1010.6
20180224041036 35 300 0.0 4.0 0.03 0.39 0.19 97 1009.9
20180224035534 34 5 1.0 4.0 0.04 0.39 0.18 96 1009.8
20180224034031 34 177 0.0 1.0 0.04 0.38 0.17 96 1010.0
20180224032531 34 167 0.0 2.0 0.03 0.36 0.16 96 1009.7
20180224031033 33 167 2.0 4.0 0.06 0.36 0.16 96 1009.7
20180224025531 34 167 1.0 4.0 0.05 0.35 0.14 96 1009.4
20180224024029 34 79 3.0 7.0 0.06 0.34 0.13 96 1009.4
20180224022530 34 209 0.0 0.0 0.06 0.33 0.13 96 1009.3
20180224021027 33 209 0.0 3.0 0.06 0.31 0.10 96 1009.5
20180224015528 33 225 0.0 0.0 0.05 0.30 0.09 96 1009.5
20180224014025 33 225 1.0 2.0 0.05 0.28 0.08 96 1009.3
20180224012527 33 159 0.0 0.0 0.05 0.27 0.06 96 1009.4
20180224011025 33 159 0.0 2.0 0.03 0.25 0.05 96 1009.7
20180224005523 33 159 0.0 0.0 0.03 0.24 0.04 96 1009.7
20180224004023 33 159 0.0 1.0 0.03 0.24 0.03 96 1009.7
20180224002523 33 159 1.0 5.0 0.02 0.22 0.02 96 1009.6
20180224001022 33 178 2.0 5.0 0.02 0.22 0.02 96 1009.5
20180223235519 33 315 0.0 3.0 0.01 0.21 0.01 96 1009.3
20180223234019 33 307 1.0 4.0 0.00 0.20 0.00 96 1009.4
20180223232517 33 315 1.0 3.0 0.00 0.20 0.00 96 1009.5
20180223231017 33 315 1.0 3.0 0.01 0.20 0.00 95 1009.9
20180223225512 33 327 2.0 3.0 0.01 0.20 0.20 95 1010.0
20180223224012 32 124 0.0 0.0 0.01 0.20 0.20 95 1010.1
20180223222511 33 124 0.0 0.0 0.01 0.20 0.20 95 1010.2
20180223221011 33 124 0.0 5.0 0.00 0.20 0.20 95 1010.3
20180223215511 33 118 1.0 5.0 0.01 0.20 0.20 95 1010.2
20180223214009 33 134 2.0 7.0 0.01 0.20 0.20 95 1010.2
20180223212510 33 113 3.0 7.0 0.02 0.20 0.20 94 1010.1
20180223211009 34 133 5.0 12.0 0.02 0.20 0.20 94 1009.9
20180223205511 35 122 7.0 14.0 0.02 0.19 0.19 94 1009.9
20180223204007 36 172 3.0 9.0 0.02 0.19 0.19 94 1009.6
20180223202507 36 170 4.0 8.0 0.02 0.18 0.18 94 1009.3
20180223201005 36 136 4.0 9.0 0.02 0.17 0.17 94 1009.0
20180223195506 37 153 5.0 10.0 0.02 0.17 0.17 94 1008.9
20180223194008 37 163 4.0 8.0 0.01 0.17 0.17 94 1008.8
20180223192503 37 153 2.0 5.0 0.01 0.17 0.17 93 1008.7
20180223191003 37 34 0.0 3.0 0.00 0.16 0.16 93 1008.4
20180223185506 37 121 0.0 1.0 0.00 0.16 0.16 93 1008.5
20180223184003 37 121 0.0 0.0 0.00 0.16 0.16 93 1008.7
20180223182504 37 121 0.0 0.0 0.00 0.16 0.16 93 1008.6
20180223181005 37 121 3.0 6.0 0.00 0.16 0.16 93 1008.6
20180223175500 37 131 3.0 6.0 0.00 0.16 0.16 93 1008.4
20180223174001 37 178 2.0 6.0 0.00 0.16 0.16 92 1008.1
20180223172501 37 171 4.0 8.0 0.00 0.16 0.16 92 1007.8
20180223170959 37 112 5.0 12.0 0.00 0.16 0.16 92 1007.9
20180223165559 37 144 4.0 9.0 0.00 0.18 0.16 91 1007.6
20180223163957 38 18 0.0 0.0 0.00 0.18 0.16 92 1007.1
20180223162458 38 18 0.0 0.0 0.00 0.18 0.16 92 1007.3
20180223160956 38 18 0.0 3.0 0.00 0.18 0.16 92 1007.4
20180223155456 38 18 0.0 2.0 0.00 0.19 0.16 92 1007.7
20180223153954 37 298 0.0 0.0 0.00 0.19 0.16 93 1008.0
20180223152455 37 303 1.0 5.0 0.00 0.19 0.16 93 1008.0
20180223150956 37 134 0.0 2.0 0.00 0.19 0.16 93 1008.3
20180223145453 37 134 0.0 0.0 0.00 0.19 0.16 93 1008.6
20180223143954 37 134 1.0 5.0 0.00 0.19 0.16 93 1008.7
20180223142452 37 168 0.0 5.0 0.00 0.19 0.16 94 1008.7
20180223140952 37 160 3.0 7.0 0.00 0.19 0.16 94 1008.8
20180223135450 37 205 0.0 3.0 0.00 0.19 0.16 95 1008.5
20180223133949 37 304 0.0 3.0 0.01 0.19 0.16 95 1008.7
20180223132448 37 304 0.0 0.0 0.02 0.19 0.16 96 1008.7
20180223130947 36 304 0.0 0.0 0.02 0.19 0.16 96 1009.0
20180223125448 36 304 0.0 4.0 0.03 0.19 0.16 96 1009.1
20180223123945 35 307 0.0 3.0 0.03 0.18 0.15 96 1009.1
20180223122446 35 307 0.0 3.0 0.03 0.17 0.14 96 1009.4
20180223120943 34 296 0.0 1.0 0.04 0.17 0.13 96 1009.7
20180223115443 34 159 0.0 0.0 0.03 0.16 0.13 96 1010.0
20180223113943 34 159 0.0 0.0 0.04 0.15 0.12 96 1010.1
20180223112442 34 159 0.0 0.0 0.03 0.14 0.11 96 1010.3
20180223110942 33 159 0.0 0.0 0.03 0.13 0.09 96 1010.3
20180223105440 33 159 0.0 0.0 0.03 0.12 0.09 96 1010.3
20180223103943 33 159 0.0 0.0 0.03 0.11 0.08 96 1010.3
20180223102440 33 159 0.0 0.0 0.03 0.11 0.08 96 1010.3